createdAt,value
2022-09-05T00:01:53.406Z,3.40
2022-09-05T00:04:37.962Z,3.87
2022-09-05T00:07:31.225Z,2.97
2022-09-05T00:10:22.426Z,4.00
2022-09-05T00:13:07.069Z,3.70
2022-09-05T00:15:37.409Z,3.80
2022-09-05T00:24:17.136Z,3.63
2022-09-05T00:24:22.578Z,3.80
2022-09-05T00:24:42.148Z,3.30
2022-09-05T00:27:24.043Z,3.77
2022-09-05T00:31:06.226Z,3.80
2022-09-05T00:33:26.088Z,3.40
2022-09-05T00:36:16.033Z,3.30
2022-09-05T00:38:56.942Z,3.43
2022-09-05T00:41:24.158Z,3.43
2022-09-05T00:43:52.425Z,3.50
2022-09-05T00:46:25.358Z,3.63
2022-09-05T00:49:23.333Z,3.50
2022-09-05T00:52:10.266Z,3.27
2022-09-05T00:55:02.288Z,3.60
2022-09-05T00:57:46.827Z,3.50
2022-09-05T01:00:19.962Z,3.57
2022-09-05T01:03:02.868Z,3.90
2022-09-05T01:05:59.726Z,3.27
2022-09-05T01:08:54.068Z,3.60
2022-09-05T01:11:32.489Z,3.40
2022-09-05T01:14:21.490Z,3.60
2022-09-05T01:16:54.027Z,3.40
2022-09-05T01:20:18.588Z,3.10
2022-09-05T01:23:24.598Z,3.70
2022-09-05T01:26:24.938Z,3.43
2022-09-05T01:29:17.128Z,3.23
2022-09-05T01:32:11.779Z,3.47
2022-09-05T01:34:50.365Z,3.70
2022-09-05T01:37:33.062Z,3.90
2022-09-05T01:40:22.456Z,3.53
2022-09-05T01:43:20.491Z,3.40
2022-09-05T01:46:11.669Z,3.30
2022-09-05T01:48:53.403Z,3.33
2022-09-05T01:51:41.443Z,3.50
2022-09-05T01:54:24.941Z,3.50
2022-09-05T01:57:12.841Z,3.77
2022-09-05T01:59:54.726Z,3.30
2022-09-05T02:02:59.052Z,3.70
2022-09-05T02:05:53.369Z,3.40
2022-09-05T02:08:47.387Z,3.77
2022-09-05T02:11:14.838Z,3.40
2022-09-05T02:13:52.451Z,3.80
2022-09-05T02:16:44.413Z,3.60
2022-09-05T02:19:22.382Z,3.70
2022-09-05T02:22:18.045Z,3.40
2022-09-05T02:24:59.833Z,3.50
2022-09-05T02:28:04.209Z,3.70
2022-09-05T02:30:55.787Z,3.63
2022-09-05T02:33:46.897Z,3.83
2022-09-05T02:36:25.375Z,3.33
2022-09-05T02:45:01.440Z,3.60
2022-09-05T02:45:13.054Z,3.40
2022-09-05T02:45:19.431Z,4.00
2022-09-05T02:48:09.674Z,3.50
2022-09-05T02:55:56.095Z,3.60
2022-09-05T02:57:33.864Z,3.90
2022-09-05T02:58:08.075Z,3.77
2022-09-05T03:00:21.570Z,3.87
2022-09-05T03:03:16.925Z,3.60
2022-09-05T03:06:12.373Z,3.40
2022-09-05T03:09:08.080Z,3.40
2022-09-05T03:12:27.177Z,3.80
2022-09-05T03:15:22.489Z,3.97
2022-09-05T03:18:20.847Z,3.50
2022-09-05T03:21:12.301Z,3.97
2022-09-05T03:24:10.133Z,4.30
2022-09-05T03:27:01.374Z,3.27
2022-09-05T03:30:05.221Z,3.80
2022-09-05T03:33:02.084Z,3.70
2022-09-05T03:35:50.379Z,3.90
2022-09-05T03:39:11.404Z,3.67
2022-09-05T03:42:05.631Z,4.17
2022-09-05T03:44:48.637Z,3.50
2022-09-05T03:47:51.619Z,4.03
2022-09-05T03:54:36.166Z,4.07
2022-09-05T03:57:14.718Z,3.80
2022-09-05T03:57:24.064Z,4.00
2022-09-05T04:00:09.481Z,3.70
2022-09-05T04:06:44.164Z,3.77
2022-09-05T04:08:16.873Z,3.87
2022-09-05T04:09:08.999Z,3.50
2022-09-05T04:11:45.386Z,4.00
2022-09-05T04:14:24.218Z,3.77
2022-09-05T04:16:58.134Z,3.60
2022-09-05T04:19:32.928Z,4.17
2022-09-05T04:22:22.846Z,3.63
2022-09-05T04:25:02.841Z,4.10
2022-09-05T04:27:46.451Z,3.87
2022-09-05T04:30:39.389Z,3.80
2022-09-05T04:33:22.179Z,4.10
2022-09-05T04:36:25.831Z,3.90
2022-09-05T04:39:17.213Z,4.00
2022-09-05T04:41:51.672Z,4.00
2022-09-05T04:44:37.505Z,3.57
2022-09-05T04:47:13.105Z,3.93
2022-09-05T04:49:55.462Z,4.03
2022-09-05T04:52:48.907Z,3.80
2022-09-05T04:55:21.567Z,4.40
2022-09-05T04:58:10.881Z,4.37
2022-09-05T05:06:01.443Z,3.97
2022-09-05T05:06:12.234Z,4.00
2022-09-05T05:06:46.096Z,4.10
2022-09-05T05:09:29.352Z,4.30
2022-09-05T05:18:03.805Z,4.00
2022-09-05T05:18:08.956Z,4.17
2022-09-05T05:18:59.547Z,4.83
2022-09-05T05:21:31.398Z,4.30
2022-09-05T05:24:22.960Z,4.50
2022-09-05T05:26:58.517Z,4.40
2022-09-05T05:29:38.214Z,4.73
2022-09-05T05:32:06.926Z,4.57
2022-09-05T05:34:43.077Z,4.40
2022-09-05T05:37:32.062Z,4.27
2022-09-05T05:40:09.745Z,4.60
2022-09-05T05:42:41.514Z,4.60
2022-09-05T05:45:25.741Z,4.80
2022-09-05T05:47:59.462Z,4.33
2022-09-05T05:50:51.810Z,4.53
2022-09-05T05:53:41.054Z,4.90
2022-09-05T05:56:18.521Z,4.67
2022-09-05T05:59:03.397Z,4.50
2022-09-05T06:01:48.021Z,4.30
2022-09-05T06:04:52.463Z,4.80
2022-09-05T06:11:07.399Z,4.80
2022-09-05T06:14:56.181Z,4.27
2022-09-05T06:15:04.946Z,5.03
2022-09-05T06:17:27.942Z,4.60
2022-09-05T06:22:06.614Z,5.10
2022-09-05T06:24:11.890Z,5.13
2022-09-05T06:27:07.481Z,5.23
2022-09-05T06:29:57.043Z,5.60
2022-09-05T06:32:41.763Z,5.20
2022-09-05T06:35:34.157Z,4.70
2022-09-05T06:38:09.530Z,4.83
2022-09-05T06:41:07.726Z,5.17
2022-09-05T06:43:55.494Z,5.10
2022-09-05T06:46:55.014Z,5.30
2022-09-05T06:49:41.787Z,5.40
2022-09-05T06:52:41.840Z,5.80
2022-09-05T06:55:34.419Z,5.37
2022-09-05T06:58:22.785Z,5.40
2022-09-05T07:00:51.571Z,5.30
2022-09-05T07:03:52.289Z,5.30
2022-09-05T07:06:46.666Z,5.37
2022-09-05T07:09:52.837Z,5.20
2022-09-05T07:12:30.022Z,5.57
2022-09-05T07:15:22.758Z,5.53
2022-09-05T07:18:11.329Z,5.33
2022-09-05T07:21:15.856Z,5.40
2022-09-05T07:24:10.001Z,5.50
2022-09-05T07:26:54.245Z,5.57
2022-09-05T07:29:34.391Z,5.03
2022-09-05T07:32:03.134Z,6.13
2022-09-05T07:34:32.170Z,5.87
2022-09-05T07:37:14.265Z,5.80
2022-09-05T07:39:55.257Z,5.67
2022-09-05T07:42:30.241Z,5.50
2022-09-05T07:45:08.512Z,5.40
2022-09-05T07:47:40.380Z,5.77
2022-09-05T07:54:30.050Z,6.20
2022-09-05T07:56:56.945Z,5.73
2022-09-05T07:57:01.149Z,5.27
2022-09-05T07:58:52.686Z,5.67
2022-09-05T08:01:22.764Z,5.50
2022-09-05T08:03:57.037Z,6.00
2022-09-05T08:07:46.437Z,5.70
2022-09-05T08:10:05.181Z,5.40
2022-09-05T08:12:31.124Z,5.70
2022-09-05T08:15:24.566Z,5.50
2022-09-05T08:18:12.056Z,5.80
2022-09-05T08:20:59.567Z,5.63
2022-09-05T08:24:09.148Z,5.73
2022-09-05T08:27:16.584Z,5.60
2022-09-05T08:30:25.719Z,6.00
2022-09-05T08:32:49.729Z,5.70
2022-09-05T08:35:29.496Z,6.10
2022-09-05T08:37:57.393Z,5.93
2022-09-05T08:40:35.966Z,5.70
2022-09-05T08:46:35.714Z,6.07
2022-09-05T08:46:40.604Z,6.10
2022-09-05T08:49:38.715Z,5.93
2022-09-05T08:52:28.150Z,5.60
2022-09-05T08:55:23.548Z,6.07
2022-09-05T08:57:56.039Z,5.87
2022-09-05T09:00:24.197Z,5.80
2022-09-05T09:03:04.899Z,5.40
2022-09-05T09:06:14.089Z,5.53
2022-09-05T09:09:03.316Z,5.57
2022-09-05T09:11:36.762Z,4.80
2022-09-05T09:14:30.905Z,6.10
2022-09-05T09:17:20.745Z,5.63
2022-09-05T09:20:07.464Z,5.67
2022-09-05T09:22:52.311Z,6.27
2022-09-05T09:25:27.911Z,5.53
2022-09-05T09:28:49.556Z,5.63
2022-09-05T09:31:45.648Z,6.23
2022-09-05T09:34:29.395Z,5.93
2022-09-05T09:37:05.197Z,5.67
2022-09-05T09:39:39.814Z,5.53
2022-09-05T09:42:45.461Z,5.70
2022-09-05T09:45:22.959Z,5.73
2022-09-05T09:48:10.742Z,6.10
2022-09-05T09:51:08.572Z,5.32
2022-09-05T09:54:03.083Z,5.57
2022-09-05T09:56:48.079Z,6.03
2022-09-05T09:59:54.052Z,5.90
2022-09-05T10:04:36.703Z,5.40
2022-09-05T10:10:45.542Z,5.57
2022-09-05T10:10:49.405Z,5.55
2022-09-05T10:12:39.161Z,5.47
2022-09-05T10:15:31.311Z,5.47
2022-09-05T10:18:32.544Z,5.22
2022-09-05T10:21:16.019Z,6.07
2022-09-05T10:24:21.661Z,5.50
2022-09-05T10:27:10.715Z,5.53
2022-09-05T10:29:46.405Z,5.78
2022-09-05T10:35:11.522Z,5.30
2022-09-05T10:35:25.752Z,4.90
2022-09-05T10:38:07.752Z,5.15
2022-09-05T10:41:08.113Z,4.75
2022-09-05T10:43:31.014Z,5.40
2022-09-05T10:45:57.526Z,5.25
2022-09-05T10:48:52.886Z,5.43
2022-09-05T10:51:32.360Z,5.15
2022-09-05T10:54:29.179Z,5.15
2022-09-05T10:57:11.587Z,5.25
2022-09-05T11:01:45.372Z,5.15
2022-09-05T11:02:57.968Z,5.28
2022-09-05T11:05:36.119Z,4.72
2022-09-05T11:08:26.769Z,5.15
2022-09-05T11:11:34.763Z,4.90
2022-09-05T11:14:26.560Z,4.95
2022-09-05T11:17:02.188Z,5.32
2022-09-05T11:20:08.028Z,5.40
2022-09-05T11:22:49.090Z,5.18
2022-09-05T11:25:39.928Z,5.50
2022-09-05T11:28:18.786Z,5.65
2022-09-05T11:30:53.285Z,4.93
2022-09-05T11:39:59.806Z,5.45
2022-09-05T11:40:07.455Z,5.20
2022-09-05T11:40:31.417Z,5.07
2022-09-05T11:43:08.233Z,4.20
2022-09-05T11:45:58.759Z,4.60
2022-09-05T11:48:59.698Z,5.10
2022-09-05T11:52:03.572Z,4.30
2022-09-05T11:54:55.739Z,4.00
2022-09-05T11:57:45.854Z,4.28
2022-09-05T12:00:33.125Z,4.60
2022-09-05T12:03:58.261Z,4.25
2022-09-05T12:07:26.391Z,4.50
2022-09-05T12:10:03.213Z,4.15
2022-09-05T12:12:54.085Z,3.80
2022-09-05T12:15:26.068Z,4.45
2022-09-05T12:18:21.685Z,4.10
2022-09-05T12:21:10.343Z,3.58
2022-09-05T12:24:49.802Z,4.40
2022-09-05T12:27:42.196Z,3.70
2022-09-05T12:30:04.480Z,4.25
2022-09-05T12:35:50.065Z,5.28
2022-09-05T12:41:32.015Z,4.13
2022-09-05T12:41:42.270Z,4.35
2022-09-05T12:41:43.000Z,4.20
2022-09-05T12:44:45.056Z,3.78
2022-09-05T12:47:19.404Z,3.97
2022-09-05T12:50:02.671Z,3.80
2022-09-05T12:52:31.498Z,3.90
2022-09-05T12:55:05.057Z,3.90
2022-09-05T13:03:05.943Z,3.90
2022-09-05T13:03:09.852Z,4.32
2022-09-05T13:03:30.024Z,4.40
2022-09-05T13:06:24.911Z,4.35
2022-09-05T13:08:59.357Z,4.57
2022-09-05T13:14:56.208Z,4.25
2022-09-05T13:15:02.695Z,4.90
2022-09-05T13:17:14.133Z,4.65
2022-09-05T13:19:51.275Z,4.60
2022-09-05T13:22:22.559Z,4.53
2022-09-05T13:25:16.625Z,4.57
2022-09-05T13:27:56.756Z,4.70
2022-09-05T13:33:28.404Z,4.95
2022-09-05T13:38:01.200Z,4.70
2022-09-05T13:38:14.031Z,4.43
2022-09-05T13:39:06.876Z,5.00
2022-09-05T13:41:41.931Z,4.82
2022-09-05T13:44:27.677Z,4.40
2022-09-05T13:47:30.649Z,4.10
2022-09-05T13:50:33.826Z,4.82
2022-09-05T13:53:15.562Z,4.75
2022-09-05T13:56:03.348Z,4.60
2022-09-05T13:58:39.876Z,4.57
2022-09-05T14:01:37.463Z,4.88
2022-09-05T14:07:55.797Z,4.85
2022-09-05T14:10:28.614Z,4.40
2022-09-05T14:13:07.548Z,4.40
2022-09-05T14:15:54.360Z,5.05
2022-09-05T14:18:30.006Z,4.60
2022-09-05T14:21:17.772Z,4.47
2022-09-05T14:23:56.793Z,4.57
2022-09-05T14:26:29.976Z,4.20
2022-09-05T14:29:26.216Z,4.70
2022-09-05T14:37:34.374Z,4.50
2022-09-05T14:38:00.570Z,4.50
2022-09-05T14:38:28.823Z,4.50
2022-09-05T14:41:29.128Z,4.40
2022-09-05T14:44:23.266Z,4.70
2022-09-05T14:47:35.340Z,5.28
2022-09-05T14:50:13.619Z,4.65
2022-09-05T14:57:23.546Z,4.40
2022-09-05T15:02:39.766Z,4.82
2022-09-05T15:02:53.586Z,4.47
2022-09-05T15:05:15.893Z,4.18
2022-09-05T15:07:47.912Z,4.22
2022-09-05T15:12:21.379Z,4.07
2022-09-05T15:13:16.815Z,4.53
2022-09-05T15:16:02.260Z,4.53
2022-09-05T15:18:34.049Z,4.40
2022-09-05T15:21:35.382Z,4.40
2022-09-05T15:24:04.267Z,4.60
2022-09-05T15:26:47.249Z,4.47
2022-09-05T15:29:14.773Z,4.00
2022-09-05T15:31:41.910Z,4.57
2022-09-05T15:34:26.490Z,4.32
2022-09-05T15:36:55.145Z,4.47
2022-09-05T15:39:35.698Z,4.05
2022-09-05T15:42:21.484Z,4.45
2022-09-05T15:45:08.572Z,4.50
2022-09-05T15:47:38.770Z,4.90
2022-09-05T15:50:21.842Z,4.88
2022-09-05T15:52:55.229Z,4.40
2022-09-05T15:55:26.747Z,4.65
2022-09-05T15:58:05.819Z,4.70
2022-09-05T16:00:46.174Z,4.22
2022-09-05T16:04:27.109Z,4.78
2022-09-05T16:10:28.383Z,4.88
2022-09-05T16:10:41.440Z,4.97
2022-09-05T16:12:16.666Z,4.85
2022-09-05T16:15:19.849Z,4.65
2022-09-05T16:23:14.715Z,4.72
2022-09-05T16:23:34.265Z,4.70
2022-09-05T16:23:41.555Z,4.78
2022-09-05T16:26:30.377Z,4.40
2022-09-05T16:29:04.001Z,4.57
2022-09-05T16:31:40.500Z,4.53
2022-09-05T16:34:16.158Z,4.63
2022-09-05T16:37:07.851Z,4.97
2022-09-05T16:39:45.262Z,4.82
2022-09-05T16:42:46.815Z,5.03
2022-09-05T16:45:22.939Z,4.90
2022-09-05T16:48:23.390Z,4.55
2022-09-05T16:51:13.342Z,4.60
2022-09-05T16:54:10.296Z,4.78
2022-09-05T16:56:47.093Z,4.93
2022-09-05T16:59:19.672Z,5.00
2022-09-05T17:02:07.504Z,5.20
2022-09-05T17:05:11.026Z,4.82
2022-09-05T17:08:02.807Z,5.05
2022-09-05T17:10:40.834Z,5.20
2022-09-05T17:13:11.576Z,4.85
2022-09-05T17:15:51.533Z,4.60
2022-09-05T17:18:24.504Z,4.70
2022-09-05T17:20:59.001Z,4.80
2022-09-05T17:29:15.125Z,5.15
2022-09-05T17:29:33.612Z,5.07
2022-09-05T17:32:51.948Z,4.47
2022-09-05T17:35:46.641Z,4.70
2022-09-05T17:38:36.298Z,4.90
2022-09-05T17:41:14.843Z,4.75
2022-09-05T17:43:42.378Z,5.15
2022-09-05T17:46:20.429Z,4.50
2022-09-05T17:48:49.231Z,4.80
2022-09-05T17:51:34.361Z,5.00
2022-09-05T17:54:03.053Z,4.82
2022-09-05T17:56:35.918Z,4.82
2022-09-05T17:59:28.352Z,4.68
2022-09-05T18:02:06.836Z,4.80
2022-09-05T18:04:50.067Z,4.32
2022-09-05T18:07:19.217Z,4.90
2022-09-05T18:10:14.885Z,4.78
2022-09-05T18:15:34.259Z,4.72
2022-09-05T18:18:05.280Z,4.80
2022-09-05T18:21:21.365Z,5.15
2022-09-05T18:23:54.789Z,4.30
2022-09-05T18:26:24.482Z,4.70
2022-09-05T18:29:14.699Z,4.70
2022-09-05T18:31:43.478Z,4.78
2022-09-05T18:34:14.313Z,5.07
2022-09-05T18:36:43.737Z,5.03
2022-09-05T18:39:29.408Z,4.47
2022-09-05T18:42:33.614Z,4.93
2022-09-05T18:45:15.091Z,4.68
2022-09-05T18:48:03.573Z,5.10
2022-09-05T18:50:37.616Z,4.68
2022-09-05T18:53:13.287Z,5.20
2022-09-05T18:56:13.551Z,5.15
2022-09-05T18:59:10.014Z,4.65
2022-09-05T19:01:51.016Z,5.25
2022-09-05T19:04:40.377Z,4.95
2022-09-05T19:07:17.097Z,4.78
2022-09-05T19:10:34.820Z,4.82
2022-09-05T19:13:08.810Z,4.88
2022-09-05T19:15:52.867Z,5.30
2022-09-05T19:19:10.004Z,5.10
2022-09-05T19:21:40.452Z,5.00
2022-09-05T19:24:11.323Z,5.00
2022-09-05T19:26:38.530Z,4.85
2022-09-05T19:35:29.387Z,5.05
2022-09-05T19:36:54.137Z,5.18
2022-09-05T19:36:54.642Z,5.03
2022-09-05T19:37:48.464Z,5.45
2022-09-05T19:46:15.431Z,5.10
2022-09-05T19:47:29.585Z,5.60
2022-09-05T19:47:36.584Z,5.87
2022-09-05T19:49:11.222Z,5.90
2022-09-05T19:51:40.949Z,5.80
2022-09-05T19:54:08.704Z,5.17
2022-09-05T19:56:45.896Z,5.80
2022-09-05T19:59:22.670Z,5.73
2022-09-05T20:01:51.853Z,6.07
2022-09-05T20:04:20.554Z,5.50
2022-09-05T20:06:49.459Z,5.77
2022-09-05T20:09:19.126Z,6.13
2022-09-05T20:12:00.645Z,5.40
2022-09-05T20:14:36.646Z,5.30
2022-09-05T20:17:26.889Z,5.50
2022-09-05T20:20:15.969Z,5.60
2022-09-05T20:22:50.671Z,5.87
2022-09-05T20:25:36.786Z,5.87
2022-09-05T20:28:10.986Z,5.53
2022-09-05T20:30:42.917Z,6.00
2022-09-05T20:33:25.060Z,6.27
2022-09-05T20:38:28.323Z,5.63
2022-09-05T20:43:18.672Z,5.60
2022-09-05T20:43:19.663Z,5.60
2022-09-05T20:44:48.290Z,5.50
2022-09-05T20:53:53.503Z,5.60
2022-09-05T20:54:14.212Z,5.90
2022-09-05T20:54:24.766Z,5.70
2022-09-05T20:56:22.451Z,6.47
2022-09-05T20:58:50.421Z,5.90
2022-09-05T21:01:24.527Z,6.00
2022-09-05T21:04:02.679Z,6.43
2022-09-05T21:06:34.706Z,6.80
2022-09-05T21:09:14.289Z,6.47
2022-09-05T21:11:42.610Z,5.70
2022-09-05T21:14:10.600Z,5.97
2022-09-05T21:16:47.610Z,6.20
2022-09-05T21:19:27.893Z,6.10
2022-09-05T21:22:04.867Z,6.50
2022-09-05T21:24:31.566Z,5.70
2022-09-05T21:27:22.425Z,6.00
2022-09-05T21:29:58.714Z,6.17
2022-09-05T21:32:36.273Z,6.17
2022-09-05T21:35:33.916Z,6.13
2022-09-05T21:37:53.755Z,5.93
2022-09-05T21:40:21.315Z,6.47
2022-09-05T21:47:39.709Z,6.17
2022-09-05T21:47:43.758Z,6.47
2022-09-05T21:48:23.817Z,6.20
2022-09-05T21:50:59.662Z,6.40
2022-09-05T21:57:00.418Z,5.90
2022-09-05T21:59:18.403Z,6.07
2022-09-05T21:59:38.841Z,5.83
2022-09-05T22:02:13.451Z,6.57
2022-09-05T22:04:40.989Z,6.00
2022-09-05T22:07:08.950Z,6.40
2022-09-05T22:09:35.377Z,6.30
2022-09-05T22:12:07.337Z,6.37
2022-09-05T22:14:48.450Z,6.13
2022-09-05T22:17:14.913Z,6.03
2022-09-05T22:19:41.355Z,6.50
2022-09-05T22:22:17.575Z,5.80
2022-09-05T22:24:50.261Z,5.97
2022-09-05T22:27:19.817Z,5.67
2022-09-05T22:29:48.951Z,6.07
2022-09-05T22:32:25.864Z,6.00
2022-09-05T22:35:26.895Z,6.37
2022-09-05T22:37:49.400Z,6.10
2022-09-05T22:40:26.418Z,6.43
2022-09-05T22:43:02.217Z,6.37
2022-09-05T22:45:30.357Z,6.23
2022-09-05T22:47:57.917Z,6.90
2022-09-05T22:50:25.098Z,6.50
2022-09-05T22:52:52.461Z,7.17
2022-09-05T22:55:19.022Z,6.23
2022-09-05T22:57:45.443Z,6.90
2022-09-05T23:00:12.547Z,7.60
2022-09-05T23:02:38.969Z,6.73
2022-09-05T23:05:06.890Z,6.90
2022-09-05T23:07:33.378Z,7.50
2022-09-05T23:10:00.143Z,7.87
2022-09-05T23:12:27.131Z,7.63
2022-09-05T23:14:54.037Z,7.70
2022-09-05T23:17:20.608Z,7.37
2022-09-05T23:19:47.146Z,8.13
2022-09-05T23:22:13.603Z,8.50
2022-09-05T23:24:40.200Z,8.00
2022-09-05T23:27:06.649Z,7.93
2022-09-05T23:29:33.227Z,8.80
2022-09-05T23:32:03.004Z,9.07
2022-09-05T23:34:32.974Z,9.10
2022-09-05T23:37:00.127Z,8.90
2022-09-05T23:39:26.860Z,8.80
2022-09-05T23:41:53.710Z,8.80
2022-09-05T23:44:20.303Z,9.53
2022-09-05T23:46:46.705Z,9.27
2022-09-05T23:49:13.249Z,9.70
2022-09-05T23:51:39.719Z,9.53
2022-09-05T23:54:06.209Z,9.40
2022-09-05T23:56:32.722Z,9.37
2022-09-05T23:58:59.990Z,9.27
